METAR Data
IDs: Format: Raw Decoded Include TAF

Data at: 0009 UTC 25 Apr 2019

METAR for:KEST (Estherville Muni, IA, US)
Text:KEST 242352Z AUTO 25007KT 10SM BKN110 23/04 A2971 RMK AO2 SLP062 T02280044 10239 20189 56016
Temperature: 22.8°C ( 73°F)
Dewpoint: 4.4°C ( 40°F) [RH = 30%]
Pressure (altimeter):29.71 inches Hg (1006.2 mb) [Sea level pressure: 1006.2 mb]
Winds:from the WSW (250 degrees) at 8 MPH (7 knots; 3.6 m/s)
Visibility:10 or more sm (16+ km)
Ceiling:11000 feet AGL
Clouds: broken clouds at 11000 feet AGL
QC Flag:automated observation with no human augmentation